Overview Statistics Trail Chart Weather Telemetry Raw packets
 

This is the latest recevied weather packets stored in our database for station/object PY5AL-13. If no packets are shown the sender has not sent any weather packets the latest 10 day(s).

<< 17 18 19 20 21 22 23 >>
Time Temp. Humidity Pressure Rain* Wind** Luminosity Snow
1777313645 28.33° C 55% 1012.9 hPa - - - -
1777312445 28.33° C 56% 1013.2 hPa - - - -
1777311245 28.33° C 56% 1013.1 hPa - - - -
1777310045 28.33° C 56% 1013.2 hPa - - - -
1777308845 28.33° C 57% 1013.4 hPa - - - -
1777307645 27.78° C 57% 1013.7 hPa - - - -
1777306445 27.78° C 58% 1013.9 hPa - - - -
1777305245 27.78° C 57% 1013.8 hPa - - - -
1777304045 27.22° C 58% 1014.1 hPa - - - -
1777302845 27.22° C 61% 1014.2 hPa - - - -
1777301645 26.67° C 61% 1014.4 hPa - - - -
1777300446 26.67° C 59% 1014.3 hPa - - - -
1777299246 26.67° C 66% 1014.6 hPa - - - -
1777298046 26.11° C 70% 1014.6 hPa - - - -
1777296846 26.11° C 69% 1014.5 hPa - - - -
1777295646 26.11° C 69% 1014.8 hPa - - - -
1777294446 25.56° C 69% 1014.6 hPa - - - -
1777293246 25.56° C 67% 1014.4 hPa - - - -
1777292046 25.56° C 68% 1014.7 hPa - - - -
1777290846 25.56° C 67% 1014.5 hPa - - - -
1777289646 26.11° C 67% 1014.4 hPa - - - -
1777288446 25.56° C 69% 1014.4 hPa - - - -
1777287246 25.56° C 69% 1014.4 hPa - - - -
1777286046 25.56° C 67% 1013.8 hPa - - - -
1777284846 26.11° C 67% 1014 hPa - - - -

* Rain since midnight (hover to see other rain measurements)
** Current wind speed in m/s (hover to see current wind gust speed)